Time;durP1;ratioP1;P1;durP2;ratioP2;P2;SDS_P1;SDS_P2;PMS_P1;PMS_P2;Temp;Humidity;BMP_temperature;BMP_pressure;BME280_temperature;BME280_humidity;BME280_pressure;Samples;Min_cycle;Max_cycle;Signal;HPM_P1;HPM_P2
2023/01/14 00:00:43;;;;;;;4.60;1.30;;;;;;;5.71;99.30;100578.78;5980613;29;20035;-71
2023/01/14 00:03:39;;;;;;;3.10;1.30;;;;;;;5.75;99.95;100598.66;5980182;29;20045;-71
2023/01/14 00:06:37;;;;;;;3.60;1.10;;;;;;;5.76;99.38;100591.59;5981135;29;20086;-71
2023/01/14 00:09:33;;;;;;;10.70;2.17;;;;;;;5.87;99.06;100600.34;5981233;29;20031;-70
2023/01/14 00:12:28;;;;;;;2.53;1.07;;;;;;;5.97;98.04;100592.59;5980151;29;20398;-70
2023/01/14 00:15:23;;;;;;;3.87;1.10;;;;;;;6.12;97.72;100611.59;5980848;29;20039;-70
2023/01/14 00:18:19;;;;;;;2.83;1.20;;;;;;;6.17;97.18;100606.84;5980980;29;20045;-71
2023/01/14 00:21:14;;;;;;;2.17;1.10;;;;;;;6.13;96.97;100610.66;5980531;29;20390;-72
2023/01/14 00:24:11;;;;;;;5.47;1.47;;;;;;;6.07;96.66;100616.38;5979910;29;20054;-72
2023/01/14 00:27:07;;;;;;;5.65;1.80;;;;;;;6.13;96.34;100623.81;5980711;29;20027;-72
2023/01/14 00:30:02;;;;;;;2.97;1.35;;;;;;;5.99;96.22;100594.16;5980152;29;20054;-69
2023/01/14 00:32:59;;;;;;;5.70;1.95;;;;;;;6.01;95.91;100616.88;5979827;29;20043;-70
2023/01/14 00:35:54;;;;;;;4.80;1.50;;;;;;;5.99;96.06;100609.94;5980496;29;20054;-69
2023/01/14 00:38:51;;;;;;;7.00;1.70;;;;;;;5.98;95.50;100608.25;5980538;29;20429;-71
2023/01/14 00:41:46;;;;;;;4.22;1.35;;;;;;;6.07;95.70;100625.13;5980030;29;20082;-72
2023/01/14 00:44:41;;;;;;;6.13;1.40;;;;;;;6.07;95.41;100626.91;5979230;28;20437;-72
2023/01/14 00:47:36;;;;;;;5.00;1.27;;;;;;;6.06;94.63;100625.25;5980548;29;20483;-72
2023/01/14 00:50:32;;;;;;;4.73;1.30;;;;;;;6.06;95.42;100639.22;5979778;29;20042;-72
2023/01/14 00:53:27;;;;;;;3.93;1.30;;;;;;;6.08;94.83;100629.44;5979787;29;20027;-73
2023/01/14 00:56:23;;;;;;;6.25;1.30;;;;;;;6.15;95.17;100624.53;5979751;29;20027;-71
2023/01/14 00:59:21;;;;;;;5.03;1.30;;;;;;;6.16;94.56;100629.69;5979494;29;20113;-72
2023/01/14 01:02:16;;;;;;;8.20;1.50;;;;;;;6.23;94.24;100627.38;5979386;29;20035;-72
2023/01/14 01:05:11;;;;;;;7.37;1.40;;;;;;;6.29;93.71;100637.44;5979152;28;20426;-70
2023/01/14 01:08:11;;;;;;;3.10;1.10;;;;;;;6.27;93.59;100631.47;5979557;29;20039;-71
2023/01/14 01:11:06;;;;;;;5.57;1.48;;;;;;;6.25;93.35;100636.03;5979820;29;20106;-70
2023/01/14 01:14:02;;;;;;;4.15;1.45;;;;;;;6.08;93.26;100634.72;5978479;29;20510;-71
2023/01/14 01:16:57;;;;;;;6.17;1.33;;;;;;;6.12;94.10;100645.81;5979591;29;20058;-71
2023/01/14 01:19:54;;;;;;;6.20;1.50;;;;;;;6.15;93.81;100653.47;5979575;28;20027;-71
2023/01/14 01:22:49;;;;;;;3.88;1.35;;;;;;;6.07;93.77;100659.34;5978888;29;20043;-71
2023/01/14 01:25:44;;;;;;;2.20;1.00;;;;;;;6.02;94.14;100668.53;5979358;29;20529;-71
2023/01/14 01:28:39;;;;;;;6.53;1.43;;;;;;;5.96;93.68;100651.44;5979248;29;20043;-70
2023/01/14 01:31:35;;;;;;;5.07;1.20;;;;;;;5.94;93.91;100663.88;5979578;29;20118;-71
2023/01/14 01:34:30;;;;;;;6.47;1.50;;;;;;;5.97;94.49;100669.75;5978401;29;20035;-71
2023/01/14 01:37:26;;;;;;;5.13;1.30;;;;;;;5.94;93.82;100669.97;5979360;29;20046;-70
2023/01/14 01:40:22;;;;;;;5.32;1.40;;;;;;;5.88;93.84;100666.97;5979373;29;20471;-71
2023/01/14 01:43:18;;;;;;;4.57;1.43;;;;;;;5.87;93.81;100666.13;5977919;29;20098;-70
2023/01/14 01:46:13;;;;;;;4.93;1.17;;;;;;;5.90;93.74;100694.84;5962143;29;20034;-72
2023/01/14 01:49:17;;;;;;;3.90;1.43;;;;;;;5.86;93.36;100682.88;5979131;29;20035;-70
2023/01/14 01:52:17;;;;;;;3.55;1.63;;;;;;;5.92;93.43;100697.38;5976991;29;20062;-72
2023/01/14 01:55:13;;;;;;;7.65;1.40;;;;;;;5.84;93.71;100690.00;5961875;29;20035;-73
2023/01/14 01:58:09;;;;;;;8.05;1.42;;;;;;;5.85;93.75;100702.25;5979335;29;20495;-71
2023/01/14 02:01:05;;;;;;;3.40;1.33;;;;;;;5.90;94.03;100715.91;5978898;29;20039;-72
2023/01/14 02:04:00;;;;;;;3.50;1.47;;;;;;;5.95;93.80;100713.75;5977992;29;20046;-72
2023/01/14 02:06:55;;;;;;;5.13;1.23;;;;;;;5.87;93.39;100700.34;5979120;29;20829;-71
2023/01/14 02:10:02;;;;;;;4.47;1.20;;;;;;;5.91;93.48;100717.59;5978558;29;20286;-71
2023/01/14 02:13:20;;;;;;;9.45;1.77;;;;;;;5.91;93.60;100714.09;5961019;29;20118;-71
2023/01/14 02:16:29;;;;;;;8.73;1.67;;;;;;;5.61;93.26;100685.66;5964358;29;20034;-71
2023/01/14 02:19:37;;;;;;;5.28;1.20;;;;;;;5.73;94.36;100731.25;5983122;29;20031;-71
2023/01/14 02:22:47;;;;;;;9.40;1.73;;;;;;;5.63;94.64;100727.63;5982687;29;20042;-72
2023/01/14 02:26:19;;;;;;;5.18;1.48;;;;;;;5.65;95.18;100731.84;5983322;29;20041;-70
2023/01/14 02:29:45;;;;;;;4.50;1.42;;;;;;;5.51;95.18;100726.75;5973250;29;20099;-71
2023/01/14 02:32:53;;;;;;;4.45;1.42;;;;;;;5.46;96.04;100726.25;5965201;29;20081;-70
2023/01/14 02:36:17;;;;;;;5.30;1.92;;;;;;;5.54;96.41;100734.41;5966018;29;20094;-71
2023/01/14 02:39:28;;;;;;;6.15;1.48;;;;;;;5.62;95.66;100724.16;5983099;29;20031;-71
2023/01/14 02:45:48;;;;;;;4.65;1.13;;;;;;;5.71;96.04;100743.66;5961402;29;20435;-72
2023/01/14 02:48:44;;;;;;;5.15;1.60;;;;;;;5.69;95.64;100733.28;5965495;29;20043;-70
2023/01/14 02:51:39;;;;;;;7.43;1.98;;;;;;;5.68;95.24;100728.94;5965618;29;20114;-71
2023/01/14 02:54:35;;;;;;;5.13;1.45;;;;;;;5.68;95.97;100744.72;5964840;29;20050;-71
2023/01/14 02:57:42;;;;;;;4.47;1.20;;;;;;;5.80;95.82;100751.72;5982330;29;20619;-71
2023/01/14 03:00:53;;;;;;;9.80;1.98;;;;;;;5.64;95.16;100732.78;5982829;29;20046;-71
2023/01/14 03:04:17;;;;;;;10.07;1.77;;;;;;;5.72;95.80;100742.72;5964046;29;20075;-70
2023/01/14 03:07:22;;;;;;;10.50;1.85;;;;;;;5.70;96.03;100750.75;5982481;29;20027;-72
2023/01/14 03:10:25;;;;;;;6.55;1.58;;;;;;;5.71;95.27;100730.50;5982474;29;20059;-72
2023/01/14 03:13:23;;;;;;;3.97;1.55;;;;;;;5.69;95.35;100728.00;5965065;29;20085;-72
2023/01/14 03:16:41;;;;;;;8.25;1.50;;;;;;;5.85;95.49;100741.72;5981679;29;20039;-71
2023/01/14 03:19:54;;;;;;;5.78;1.42;;;;;;;5.88;94.94;100723.06;5964911;29;20035;-70
2023/01/14 03:22:50;;;;;;;7.38;2.33;;;;;;;6.02;94.38;100729.06;5964317;29;20062;-69
2023/01/14 03:25:47;;;;;;;7.72;1.50;;;;;;;6.14;93.78;100743.97;5982429;29;20059;-70
2023/01/14 03:28:47;;;;;;;7.30;2.10;;;;;;;6.07;94.22;100732.19;5964155;29;20047;-71
2023/01/14 03:31:46;;;;;;;10.77;2.22;;;;;;;6.22;93.40;100752.09;5981807;29;20066;-69
2023/01/14 03:35:06;;;;;;;6.22;1.60;;;;;;;6.22;94.17;100747.69;5981391;29;20031;-70
2023/01/14 03:38:12;;;;;;;7.78;1.33;;;;;;;6.26;93.60;100749.09;5959453;29;20517;-71
2023/01/14 03:41:10;;;;;;;9.07;1.77;;;;;;;6.26;93.49;100743.00;5964680;29;20139;-71
2023/01/14 03:44:18;;;;;;;7.65;1.50;;;;;;;6.32;93.17;100742.53;5980344;28;20050;-72
2023/01/14 03:47:13;;;;;;;7.95;2.35;;;;;;;6.36;92.99;100757.16;5981558;29;20039;-72
2023/01/14 03:50:15;;;;;;;6.57;1.63;;;;;;;6.34;92.90;100745.88;5981533;29;20042;-72
2023/01/14 03:53:26;;;;;;;7.68;1.75;;;;;;;6.40;92.68;100761.22;5968418;29;20263;-72
2023/01/14 03:56:33;;;;;;;8.57;1.77;;;;;;;6.35;92.58;100748.41;5964359;29;20034;-70
2023/01/14 04:00:21;;;;;;;4.93;1.75;;;;;;;6.38;92.74;100755.22;5964258;29;20039;-71
2023/01/14 04:03:16;;;;;;;5.30;1.70;;;;;;;6.36;92.92;100749.25;5958026;29;20118;-72
2023/01/14 04:06:12;;;;;;;6.80;2.00;;;;;;;6.37;92.59;100743.00;5964259;29;20038;-70
2023/01/14 04:09:09;;;;;;;11.27;2.05;;;;;;;6.46;92.54;100760.75;5963943;29;20039;-72
2023/01/14 04:12:04;;;;;;;7.35;2.25;;;;;;;6.40;92.86;100753.31;5980451;29;20475;-71
2023/01/14 04:18:13;;;;;;;10.05;2.80;;;;;;;6.40;92.77;100754.16;5981103;29;20035;-70
2023/01/14 04:21:08;;;;;;;13.83;3.77;;;;;;;6.49;92.18;100755.25;5980207;29;20479;-71
2023/01/14 04:24:03;;;;;;;9.93;3.20;;;;;;;6.50;92.06;100760.38;5980207;29;20043;-71
2023/01/14 04:26:59;;;;;;;14.07;4.00;;;;;;;6.49;92.26;100761.34;5980329;29;20066;-72
2023/01/14 04:29:54;;;;;;;13.77;3.73;;;;;;;6.48;92.52;100769.38;5980357;29;20043;-71
2023/01/14 04:32:49;;;;;;;9.83;3.07;;;;;;;6.39;92.77;100759.53;5979999;29;20035;-72
2023/01/14 04:35:48;;;;;;;12.20;3.23;;;;;;;6.36;93.07;100765.06;5980475;29;20525;-72
2023/01/14 04:38:43;;;;;;;14.95;4.10;;;;;;;6.34;92.84;100764.31;5979725;28;20116;-71
2023/01/14 04:45:00;;;;;;;10.02;3.97;;;;;;;6.35;93.42;100763.38;5980179;28;20479;-73
2023/01/14 04:47:56;;;;;;;13.27;3.15;;;;;;;6.25;93.48;100755.31;5980416;29;20039;-73
2023/01/14 04:50:51;;;;;;;10.70;3.80;;;;;;;6.21;93.36;100750.41;5977447;29;20047;-73
2023/01/14 04:53:46;;;;;;;8.98;3.50;;;;;;;6.16;93.18;100763.09;5979316;29;20067;-72
2023/01/14 04:56:42;;;;;;;10.23;3.60;;;;;;;6.20;93.17;100775.06;5980116;29;20031;-71
2023/01/14 04:59:37;;;;;;;10.10;3.70;;;;;;;6.21;93.51;100768.84;5980287;29;20057;-70
2023/01/14 05:02:33;;;;;;;14.27;4.10;;;;;;;6.21;93.41;100760.94;5979113;29;20459;-72
2023/01/14 05:05:28;;;;;;;9.57;3.33;;;;;;;6.33;92.73;100774.00;5980075;29;20483;-71
2023/01/14 05:08:23;;;;;;;20.40;3.75;;;;;;;6.39;92.90;100772.69;5980392;29;20038;-72
2023/01/14 05:11:19;;;;;;;10.17;3.20;;;;;;;6.29;92.81;100762.03;5979724;29;20027;-71
2023/01/14 05:14:14;;;;;;;14.07;3.57;;;;;;;6.35;92.95;100768.63;5979289;29;20027;-72
2023/01/14 05:17:09;;;;;;;10.07;3.10;;;;;;;6.40;92.68;100771.75;5979903;29;20972;-72
2023/01/14 05:20:05;;;;;;;9.20;3.40;;;;;;;6.27;92.71;100761.34;5979631;29;20123;-72
2023/01/14 05:23:05;;;;;;;14.20;3.78;;;;;;;6.27;93.07;100755.22;5979182;29;20035;-72
2023/01/14 05:26:01;;;;;;;12.23;4.28;;;;;;;6.30;92.86;100752.34;5979604;29;20098;-72
2023/01/14 05:28:56;;;;;;;20.97;3.93;;;;;;;6.33;92.21;100755.56;5979827;29;20490;-71
2023/01/14 05:31:51;;;;;;;13.97;3.60;;;;;;;6.32;92.13;100742.53;5978921;29;20030;-73
2023/01/14 05:34:46;;;;;;;8.30;2.93;;;;;;;6.43;92.34;100763.63;5979517;29;20047;-71
2023/01/14 05:37:42;;;;;;;10.17;3.00;;;;;;;6.36;91.76;100742.16;5979250;29;20042;-73
2023/01/14 05:40:37;;;;;;;8.87;2.63;;;;;;;6.37;91.21;100732.47;5979364;29;20110;-71
2023/01/14 05:46:50;;;;;;;8.10;2.53;;;;;;;6.39;91.89;100747.19;5967577;29;20251;-71
2023/01/14 05:49:45;;;;;;;11.35;3.22;;;;;;;6.35;91.90;100747.56;5979126;28;20519;-72
2023/01/14 05:52:40;;;;;;;13.63;2.77;;;;;;;6.34;91.36;100732.72;5978099;29;20050;-73
2023/01/14 05:55:36;;;;;;;17.70;3.10;;;;;;;6.42;91.16;100740.84;5979520;29;20035;-72
2023/01/14 05:58:31;;;;;;;13.18;2.95;;;;;;;6.42;90.90;100736.44;5979333;29;20114;-72
2023/01/14 06:07:54;;;;;;;7.55;2.40;;;;;;;6.19;90.79;100723.38;5979326;29;20443;-71
2023/01/14 06:10:50;;;;;;;14.67;2.83;;;;;;;6.11;91.17;100709.97;5978897;29;20039;-72
2023/01/14 06:13:46;;;;;;;15.23;3.50;;;;;;;6.11;91.68;100741.56;5978378;29;20094;-72
2023/01/14 06:16:41;;;;;;;12.27;3.58;;;;;;;6.02;92.03;100731.72;5979245;29;20031;-70
2023/01/14 06:19:37;;;;;;;9.67;2.87;;;;;;;5.93;92.83;100730.63;5978854;29;20045;-70
2023/01/14 06:22:32;;;;;;;12.38;2.90;;;;;;;5.91;92.52;100717.59;5978339;29;20031;-72
2023/01/14 06:25:29;;;;;;;13.67;2.33;;;;;;;5.93;92.73;100730.63;5978481;29;20031;-71
2023/01/14 06:28:24;;;;;;;11.43;2.33;;;;;;;5.87;93.20;100712.69;5978958;29;20394;-72
2023/01/14 06:31:20;;;;;;;12.43;3.10;;;;;;;6.03;92.77;100736.03;5979085;29;20039;-73
2023/01/14 06:34:15;;;;;;;10.53;2.50;;;;;;;6.07;92.76;100719.88;5977778;29;20330;-72
2023/01/14 06:37:10;;;;;;;15.03;2.90;;;;;;;5.97;92.17;100711.03;5978743;29;20542;-71
2023/01/14 06:40:06;;;;;;;13.73;2.40;;;;;;;6.01;92.47;100707.19;5978488;29;20035;-73
2023/01/14 06:43:01;;;;;;;7.20;2.53;;;;;;;6.01;91.80;100695.84;5977325;29;20042;-71
2023/01/14 06:45:57;;;;;;;12.33;2.47;;;;;;;6.08;91.92;100707.56;5978383;28;20102;-71
2023/01/14 06:48:52;;;;;;;14.90;3.00;;;;;;;5.90;92.19;100692.22;5978523;29;20027;-71
2023/01/14 06:51:47;;;;;;;10.97;3.03;;;;;;;5.92;92.19;100707.91;5978156;29;20034;-70
2023/01/14 06:54:43;;;;;;;10.47;2.43;;;;;;;5.88;92.29;100702.03;5978329;29;20271;-71
2023/01/14 06:57:40;;;;;;;13.47;2.73;;;;;;;5.93;92.40;100710.41;5978503;29;20049;-71
2023/01/14 07:00:36;;;;;;;11.55;3.15;;;;;;;5.91;91.62;100700.94;5978644;29;20078;-72
2023/01/14 07:03:31;;;;;;;14.68;2.60;;;;;;;5.95;91.72;100697.16;5980689;28;20028;-72
2023/01/14 07:06:27;;;;;;;9.38;2.25;;;;;;;5.93;91.20;100697.25;5982720;29;20042;-72
2023/01/14 07:09:22;;;;;;;11.90;2.40;;;;;;;5.96;90.36;100704.91;5982834;29;20073;-73
2023/01/14 07:12:17;;;;;;;7.82;2.42;;;;;;;6.02;90.41;100700.13;5981438;29;20063;-73
2023/01/14 07:15:15;;;;;;;10.10;2.17;;;;;;;5.92;90.99;100682.41;5982836;29;20039;-71
2023/01/14 07:18:11;;;;;;;13.80;2.05;;;;;;;5.93;91.09;100693.78;5982305;29;20059;-72
2023/01/14 07:21:06;;;;;;;12.40;2.33;;;;;;;5.98;90.71;100687.19;5982390;29;20537;-72
2023/01/14 07:24:02;;;;;;;9.53;1.80;;;;;;;5.85;90.99;100688.25;5981891;29;20046;-72
2023/01/14 07:26:57;;;;;;;8.87;1.60;;;;;;;5.76;91.92;100673.97;5982191;29;20477;-71
2023/01/14 07:29:52;;;;;;;7.33;2.73;;;;;;;5.80;91.82;100672.78;5982039;29;20291;-71
2023/01/14 07:32:48;;;;;;;10.43;2.77;;;;;;;5.78;91.30;100669.44;5981444;29;20529;-72
2023/01/14 07:35:44;;;;;;;15.18;2.25;;;;;;;5.78;91.71;100658.94;5981581;29;20035;-72
2023/01/14 07:38:39;;;;;;;16.63;2.78;;;;;;;5.82;90.86;100660.34;5982277;29;20078;-70
2023/01/14 07:41:35;;;;;;;7.93;2.07;;;;;;;5.95;90.73;100676.09;5981798;29;20383;-70
2023/01/14 07:44:31;;;;;;;12.27;2.43;;;;;;;5.91;90.96;100654.44;5980512;28;20396;-71
2023/01/14 07:47:26;;;;;;;15.63;2.85;;;;;;;5.94;90.91;100651.56;5981744;29;20067;-74
2023/01/14 07:50:22;;;;;;;14.20;3.10;;;;;;;5.96;91.34;100647.00;5980597;29;20032;-72
2023/01/14 07:53:17;;;;;;;6.80;1.92;;;;;;;5.88;91.96;100630.13;5981212;29;20039;-71
2023/01/14 07:56:13;;;;;;;10.43;2.23;;;;;;;5.87;92.24;100637.19;5981607;29;20398;-70
2023/01/14 07:59:08;;;;;;;15.90;2.33;;;;;;;5.81;93.02;100616.59;5981691;29;20058;-71
2023/01/14 08:02:05;;;;;;;4.45;1.92;;;;;;;5.83;92.76;100625.19;5979283;29;20290;-71
2023/01/14 08:05:00;;;;;;;9.40;2.35;;;;;;;5.80;92.92;100612.28;5981060;29;20103;-70
2023/01/14 08:07:56;;;;;;;8.48;2.50;;;;;;;5.80;93.21;100622.81;5981592;29;20046;-72
2023/01/14 08:10:51;;;;;;;11.37;2.53;;;;;;;5.69;93.51;100616.69;5980995;29;20035;-72
2023/01/14 08:13:49;;;;;;;6.90;1.93;;;;;;;5.66;93.49;100612.50;5980603;28;20039;-74
2023/01/14 08:16:44;;;;;;;5.85;1.52;;;;;;;5.65;93.62;100599.47;5980991;29;20043;-73
2023/01/14 08:19:40;;;;;;;8.90;2.57;;;;;;;5.70;93.69;100619.22;5981898;28;20039;-73
2023/01/14 08:22:35;;;;;;;5.50;2.00;;;;;;;5.64;93.55;100611.78;5982940;28;20471;-71
2023/01/14 08:25:30;;;;;;;10.50;2.22;;;;;;;5.62;93.76;100602.34;5980487;29;20051;-71
2023/01/14 08:28:26;;;;;;;8.63;1.27;;;;;;;5.62;93.47;100616.31;5974993;29;20379;-71
2023/01/14 08:31:21;;;;;;;8.38;1.50;;;;;;;5.60;92.99;100615.59;5980063;29;20039;-71
2023/01/14 08:34:17;;;;;;;13.13;2.07;;;;;;;5.65;93.22;100631.88;5979075;29;20114;-72
2023/01/14 08:37:12;;;;;;;10.35;2.00;;;;;;;5.60;93.19;100620.03;5980193;29;20082;-69
2023/01/14 08:40:08;;;;;;;12.07;1.73;;;;;;;5.71;92.99;100625.28;5980336;29;20035;-71
2023/01/14 08:43:04;;;;;;;9.38;1.83;;;;;;;5.64;92.73;100593.38;5978572;29;20287;-71
2023/01/14 08:46:00;;;;;;;11.50;1.23;;;;;;;5.74;92.11;100612.75;5979930;28;20134;-72
2023/01/14 08:48:55;;;;;;;5.97;1.30;;;;;;;5.68;92.42;100617.66;5980107;29;20271;-70
2023/01/14 08:51:50;;;;;;;11.37;1.30;;;;;;;5.72;92.57;100609.41;5978781;29;20414;-72
2023/01/14 08:54:46;;;;;;;5.77;1.53;;;;;;;5.69;92.10;100601.75;5979821;29;20043;-72
2023/01/14 08:57:41;;;;;;;11.97;1.80;;;;;;;5.79;91.51;100607.97;5980046;29;20100;-71
2023/01/14 09:00:36;;;;;;;5.10;1.60;;;;;;;5.82;91.79;100589.31;5979177;29;20043;-72
2023/01/14 09:03:33;;;;;;;6.13;1.80;;;;;;;5.88;91.02;100591.50;5978803;29;20062;-71
2023/01/14 09:06:28;;;;;;;10.90;1.77;;;;;;;5.80;91.35;100572.81;5979857;29;20039;-72
2023/01/14 09:19:05;;;;;;;;;;;;;;;6.02;90.25;100552.75;5979843;29;20043;-70
2023/01/14 09:22:00;;;;;;;7.27;1.73;;;;;;;6.00;90.14;100544.97;5978924;29;20377;-69
2023/01/14 09:24:56;;;;;;;12.67;1.70;;;;;;;6.02;90.13;100547.47;5960913;29;20093;-71
2023/01/14 09:27:51;;;;;;;9.87;1.73;;;;;;;6.00;89.60;100531.81;5982352;28;20023;-73
2023/01/14 09:30:47;;;;;;;9.73;1.73;;;;;;;6.01;89.06;100517.69;5987240;28;20787;-72
2023/01/14 09:33:42;;;;;;;10.68;1.85;;;;;;;6.06;89.11;100520.78;5978339;29;20027;-70
2023/01/14 09:36:37;;;;;;;12.13;2.87;;;;;;;6.12;88.73;100524.72;5979707;29;20098;-72
2023/01/14 09:39:33;;;;;;;7.73;1.63;;;;;;;6.14;88.24;100501.78;5979290;29;20102;-71
2023/01/14 09:42:31;;;;;;;10.70;1.90;;;;;;;6.15;88.09;100492.91;5978014;29;20298;-72
2023/01/14 09:45:30;;;;;;;12.65;1.77;;;;;;;6.22;87.60;100489.66;5952817;29;20059;-71
2023/01/14 09:48:27;;;;;;;8.18;1.58;;;;;;;6.23;87.52;100474.69;5979063;29;20059;-71
2023/01/14 09:51:41;;;;;;;5.90;1.70;;;;;;;6.36;86.75;100491.19;5977379;29;20046;-71
2023/01/14 09:54:44;;;;;;;10.60;1.63;;;;;;;6.38;86.43;100495.38;5978166;29;20027;-73
2023/01/14 09:57:56;;;;;;;11.30;2.08;;;;;;;6.38;86.10;100494.53;5979218;28;20031;-74
2023/01/14 10:00:59;;;;;;;11.20;2.42;;;;;;;6.38;85.78;100469.03;5978280;29;20074;-71
2023/01/14 10:04:25;;;;;;;8.57;2.10;;;;;;;6.46;86.44;100465.75;5960272;29;20067;-73
2023/01/14 10:07:21;;;;;;;10.07;2.00;;;;;;;6.42;86.22;100465.16;5978696;29;20077;-73
2023/01/14 10:10:20;;;;;;;8.25;2.03;;;;;;;6.47;85.88;100463.00;5979020;29;20126;-73
2023/01/14 10:13:25;;;;;;;15.32;2.53;;;;;;;6.53;85.46;100449.31;5977910;29;20127;-72
2023/01/14 10:16:26;;;;;;;8.85;1.48;;;;;;;6.52;85.01;100431.03;5978334;29;20043;-72
2023/01/14 10:19:42;;;;;;;7.85;1.65;;;;;;;6.55;85.41;100439.50;5961640;29;20027;-72
2023/01/14 10:22:47;;;;;;;9.05;1.80;;;;;;;6.47;85.26;100422.63;5977825;29;20027;-71
2023/01/14 10:25:47;;;;;;;7.60;1.23;;;;;;;6.49;84.72;100386.50;5960905;29;20039;-70
2023/01/14 10:28:45;;;;;;;5.80;1.40;;;;;;;6.59;85.12;100411.09;5986368;28;20650;-71
2023/01/14 10:31:41;;;;;;;8.93;1.90;;;;;;;6.55;84.87;100401.75;5960997;29;20043;-71
2023/01/14 10:34:42;;;;;;;11.85;2.42;;;;;;;6.58;84.64;100398.88;5960919;29;20050;-71
2023/01/14 10:37:37;;;;;;;9.43;2.15;;;;;;;6.58;84.69;100390.97;5964325;29;20031;-73
2023/01/14 10:40:32;;;;;;;7.93;1.60;;;;;;;6.60;84.84;100370.63;5982826;29;20609;-71
2023/01/14 10:43:41;;;;;;;5.80;1.42;;;;;;;6.67;85.04;100363.88;5964747;29;20039;-72
2023/01/14 10:46:37;;;;;;;16.23;2.88;;;;;;;6.57;85.39;100355.94;5965601;29;20113;-73
2023/01/14 10:49:45;;;;;;;7.17;2.20;;;;;;;6.57;86.77;100352.44;5964521;29;20031;-72
2023/01/14 10:52:43;;;;;;;12.43;2.38;;;;;;;6.44;88.20;100330.75;5979929;29;20118;-71
2023/01/14 10:55:49;;;;;;;8.45;1.85;;;;;;;6.43;89.75;100340.44;5982856;29;20475;-73
2023/01/14 10:58:44;;;;;;;9.35;1.83;;;;;;;6.42;89.86;100315.06;5981564;29;20037;-72
2023/01/14 11:01:41;;;;;;;13.00;1.67;;;;;;;6.40;90.10;100297.72;5965157;29;20035;-71
2023/01/14 11:04:36;;;;;;;9.02;1.75;;;;;;;6.45;89.78;100321.88;5964135;29;20050;-71
2023/01/14 11:07:38;;;;;;;10.95;2.05;;;;;;;6.42;90.51;100307.16;5982943;28;20268;-72
2023/01/14 11:10:33;;;;;;;10.48;1.67;;;;;;;6.21;92.53;100293.16;5963034;29;20090;-71
2023/01/14 11:13:41;;;;;;;10.07;2.80;;;;;;;6.09;93.62;100293.38;5979043;29;20051;-72
2023/01/14 11:16:38;;;;;;;12.57;2.38;;;;;;;6.01;95.12;100287.91;5982527;29;20110;-71
2023/01/14 11:19:33;;;;;;;10.35;2.45;;;;;;;5.95;96.65;100294.53;5981609;29;20081;-70
2023/01/14 11:22:28;;;;;;;10.57;2.60;;;;;;;5.89;98.42;100272.19;5978583;29;20043;-71
2023/01/14 11:25:24;;;;;;;7.07;1.83;;;;;;;5.79;98.56;100260.69;5963114;29;20055;-71
2023/01/14 11:28:20;;;;;;;15.43;2.40;;;;;;;5.75;100.00;100248.78;5980938;29;20067;-70
2023/01/14 11:31:17;;;;;;;8.70;1.90;;;;;;;5.70;100.00;100245.69;5977815;29;20039;-71
2023/01/14 11:34:36;;;;;;;11.60;2.85;;;;;;;5.72;100.00;100258.69;5962067;29;20046;-70
2023/01/14 11:37:37;;;;;;;11.13;1.95;;;;;;;5.58;100.00;100236.16;5963269;29;20123;-69
2023/01/14 11:43:59;;;;;;;16.70;2.80;;;;;;;5.67;100.00;100221.44;5979327;28;20031;-70
2023/01/14 11:47:15;;;;;;;7.43;2.17;;;;;;;5.58;100.00;100186.19;5964164;29;20049;-72
2023/01/14 11:50:25;;;;;;;6.70;2.10;;;;;;;5.61;100.00;100177.22;5980497;29;20033;-71
2023/01/14 11:53:26;;;;;;;7.95;2.05;;;;;;;5.69;100.00;100173.00;5973056;29;20058;-71
2023/01/14 11:56:38;;;;;;;10.07;2.53;;;;;;;5.62;100.00;100144.72;5981122;29;20035;-70
2023/01/14 11:59:37;;;;;;;13.23;2.88;;;;;;;5.73;100.00;100140.22;5958915;28;20562;-70
2023/01/14 12:02:36;;;;;;;11.65;2.47;;;;;;;5.71;100.00;100128.13;5976276;29;20035;-71
2023/01/14 12:05:33;;;;;;;9.10;2.88;;;;;;;5.71;100.00;100107.94;5960877;29;20019;-72
2023/01/14 12:08:31;;;;;;;9.57;2.03;;;;;;;5.77;100.00;100107.41;5960607;29;20388;-70
2023/01/14 12:11:32;;;;;;;9.43;2.60;;;;;;;5.85;100.00;100097.09;5974034;29;20042;-72
2023/01/14 12:17:50;;;;;;;15.55;3.00;;;;;;;5.84;100.00;100055.13;5963898;29;20043;-72
2023/01/14 12:20:46;;;;;;;18.90;3.13;;;;;;;6.00;100.00;100055.50;5960327;29;20561;-72
2023/01/14 12:23:56;;;;;;;12.27;2.80;;;;;;;6.01;100.00;100032.66;5978997;29;20039;-72
2023/01/14 12:26:52;;;;;;;13.23;3.28;;;;;;;6.05;100.00;100018.25;5931640;29;20051;-71
2023/01/14 12:29:48;;;;;;;8.73;3.08;;;;;;;6.09;100.00;99990.72;5962667;29;20473;-72
2023/01/14 12:32:47;;;;;;;15.25;4.10;;;;;;;6.16;100.00;99984.75;5979206;29;20082;-72
2023/01/14 12:35:50;;;;;;;21.63;4.70;;;;;;;6.25;100.00;99983.91;5980259;29;20039;-72
2023/01/14 12:45:52;;;;;;;12.68;3.47;;;;;;;6.36;100.00;99956.66;5963980;29;20490;-71
2023/01/14 12:48:47;;;;;;;7.13;2.00;;;;;;;6.31;100.00;99943.06;5963109;29;20423;-72
2023/01/14 12:51:42;;;;;;;17.13;3.17;;;;;;;6.30;100.00;99933.50;5978034;29;20050;-72
2023/01/14 12:54:39;;;;;;;11.80;4.20;;;;;;;6.34;100.00;99908.56;5979743;29;20039;-73
2023/01/14 12:57:36;;;;;;;16.35;3.97;;;;;;;6.39;100.00;99911.59;5962528;29;20086;-71
2023/01/14 13:00:36;;;;;;;17.38;3.95;;;;;;;6.49;100.00;99907.19;5961538;29;20032;-73
2023/01/14 13:03:38;;;;;;;20.73;4.72;;;;;;;6.46;100.00;99881.97;5960132;29;20058;-72
2023/01/14 13:06:35;;;;;;;12.75;2.80;;;;;;;6.46;100.00;99875.84;5962164;29;20042;-70
2023/01/14 13:09:39;;;;;;;12.75;4.03;;;;;;;6.55;100.00;99890.78;5979811;29;20055;-70
2023/01/14 13:12:38;;;;;;;10.63;2.75;;;;;;;6.54;100.00;99878.63;5961186;29;20023;-71
2023/01/14 13:15:35;;;;;;;10.35;2.75;;;;;;;6.52;100.00;99877.94;5979565;29;20394;-71
2023/01/14 13:18:33;;;;;;;8.82;2.33;;;;;;;6.46;100.00;99863.53;5962132;29;20534;-71
2023/01/14 13:21:54;;;;;;;9.07;2.28;;;;;;;6.49;100.00;99849.25;5979396;29;20031;-71
2023/01/14 13:25:20;;;;;;;13.85;2.85;;;;;;;6.42;100.00;99821.78;5979375;29;20479;-72
2023/01/14 13:28:17;;;;;;;9.82;2.60;;;;;;;6.49;100.00;99810.56;5962200;29;20035;-72
2023/01/14 13:31:22;;;;;;;10.23;2.58;;;;;;;6.45;100.00;99797.81;5979053;29;20077;-71
2023/01/14 13:34:20;;;;;;;11.38;2.55;;;;;;;6.54;100.00;99800.44;5978458;29;20073;-70
2023/01/14 13:37:17;;;;;;;8.32;2.70;;;;;;;6.52;100.00;99783.13;5978680;29;20039;-71
2023/01/14 13:40:23;;;;;;;14.27;3.33;;;;;;;6.53;100.00;99768.97;5966679;29;20086;-72
2023/01/14 13:43:25;;;;;;;9.10;2.95;;;;;;;6.63;100.00;99772.41;5977234;29;20031;-72
2023/01/14 13:46:24;;;;;;;10.80;3.20;;;;;;;6.57;100.00;99734.31;5978856;28;20126;-70
2023/01/14 13:49:30;;;;;;;6.32;2.50;;;;;;;6.61;100.00;99742.72;5961439;29;20487;-70
2023/01/14 13:52:26;;;;;;;7.03;1.73;;;;;;;6.59;100.00;99736.78;5977135;29;20138;-72
2023/01/14 13:55:24;;;;;;;7.35;1.73;;;;;;;6.64;100.00;99736.34;5962441;29;20043;-70
2023/01/14 13:58:40;;;;;;;7.85;2.58;;;;;;;6.67;100.00;99730.78;5978859;29;20039;-71
2023/01/14 14:01:42;;;;;;;6.88;2.00;;;;;;;6.67;100.00;99730.78;5971127;29;20047;-70
2023/01/14 14:05:00;;;;;;;5.93;1.92;;;;;;;6.57;100.00;99715.03;5960960;29;20031;-72
2023/01/14 14:08:18;;;;;;;5.05;1.67;;;;;;;6.62;100.00;99717.22;5978880;29;20043;-70
2023/01/14 14:11:13;;;;;;;3.53;1.40;;;;;;;6.56;100.00;99713.38;5979688;28;20134;-70
2023/01/14 14:14:16;;;;;;;10.25;2.28;;;;;;;6.55;100.00;99703.78;5983146;29;20035;-70
2023/01/14 14:17:31;;;;;;;4.25;1.30;;;;;;;6.46;100.00;99688.88;5983198;29;20399;-71
2023/01/14 14:20:36;;;;;;;5.07;1.52;;;;;;;6.59;100.00;99692.84;5965822;29;20039;-72
2023/01/14 14:23:41;;;;;;;4.20;1.40;;;;;;;6.63;100.00;99690.75;5964653;29;20028;-69
2023/01/14 14:26:38;;;;;;;7.25;1.60;;;;;;;6.58;100.00;99683.28;5964933;28;20513;-70
2023/01/14 14:29:36;;;;;;;3.08;1.38;;;;;;;6.55;100.00;99664.28;5964211;29;20504;-71
2023/01/14 14:32:36;;;;;;;9.48;2.45;;;;;;;6.48;100.00;99645.63;5982215;29;20110;-70
2023/01/14 14:35:42;;;;;;;6.72;2.10;;;;;;;6.56;100.00;99629.09;5966135;29;20043;-71
2023/01/14 14:38:38;;;;;;;4.15;1.88;;;;;;;6.58;100.00;99621.88;5971518;29;20032;-71
2023/01/14 14:41:36;;;;;;;5.20;1.83;;;;;;;6.60;100.00;99620.75;5982798;29;20090;-70